createdAt,value
2018-03-07T00:01:11.247Z,7.50
2018-03-07T00:03:37.503Z,7.50
2018-03-07T00:06:03.805Z,7.60
2018-03-07T00:08:30.105Z,7.40
2018-03-07T00:10:56.383Z,7.50
2018-03-07T00:13:23.155Z,7.30
2018-03-07T00:15:49.433Z,7.20
2018-03-07T00:18:15.874Z,7.50
2018-03-07T00:20:42.178Z,7.30
2018-03-07T00:23:08.438Z,7.50
2018-03-07T00:25:34.722Z,7.30
2018-03-07T00:28:00.987Z,7.20
2018-03-07T00:30:28.010Z,7.30
2018-03-07T00:32:55.009Z,7.20
2018-03-07T00:35:21.268Z,7.10
2018-03-07T00:37:48.304Z,7.20
2018-03-07T00:40:14.566Z,7.00
2018-03-07T00:42:40.913Z,7.30
2018-03-07T00:45:07.918Z,7.00
2018-03-07T00:47:34.169Z,7.20
2018-03-07T00:50:01.268Z,7.10
2018-03-07T00:52:27.529Z,6.50
2018-03-07T00:54:54.555Z,7.00
2018-03-07T00:57:21.547Z,6.90
2018-03-07T00:59:47.804Z,6.90
2018-03-07T01:02:14.089Z,7.00
2018-03-07T01:04:40.386Z,6.90
2018-03-07T01:07:06.960Z,6.60
2018-03-07T01:09:33.248Z,7.00
2018-03-07T01:11:59.538Z,6.80
2018-03-07T01:14:25.863Z,7.30
2018-03-07T01:16:52.164Z,6.90
2018-03-07T01:19:18.422Z,6.70
2018-03-07T01:21:44.698Z,6.90
2018-03-07T01:24:11.729Z,6.60
2018-03-07T01:26:37.981Z,7.10
2018-03-07T01:29:04.264Z,6.60
2018-03-07T01:31:30.595Z,6.40
2018-03-07T01:33:56.926Z,6.70
2018-03-07T01:36:23.184Z,7.00
2018-03-07T01:38:49.444Z,6.40
2018-03-07T01:41:15.734Z,6.40
2018-03-07T01:43:42.005Z,6.60
2018-03-07T01:46:08.302Z,6.50
2018-03-07T01:48:35.349Z,6.40
2018-03-07T01:51:02.356Z,6.20
2018-03-07T01:53:28.636Z,5.70
2018-03-07T01:55:54.928Z,6.30
2018-03-07T01:58:21.243Z,6.10
2018-03-07T02:00:47.541Z,6.00
2018-03-07T02:03:14.546Z,6.10
2018-03-07T02:05:40.867Z,6.10
2018-03-07T02:08:07.415Z,6.20
2018-03-07T02:10:33.693Z,6.20
2018-03-07T02:13:00.004Z,6.30
2018-03-07T02:15:26.281Z,6.30
2018-03-07T02:17:52.732Z,6.30
2018-03-07T02:20:18.984Z,5.60
2018-03-07T02:22:46.019Z,6.00
2018-03-07T02:25:13.044Z,6.00
2018-03-07T02:27:39.290Z,6.10
2018-03-07T02:30:05.594Z,6.30
2018-03-07T02:32:31.925Z,6.20
2018-03-07T02:34:58.225Z,6.20
2018-03-07T02:37:25.225Z,6.20
2018-03-07T02:39:51.548Z,6.10
2018-03-07T02:42:19.120Z,6.00
2018-03-07T02:44:50.111Z,6.00
2018-03-07T02:47:19.566Z,6.10
2018-03-07T02:49:47.788Z,5.80
2018-03-07T02:52:15.944Z,6.20
2018-03-07T02:54:43.046Z,6.20
2018-03-07T02:57:09.313Z,5.90
2018-03-07T02:59:35.621Z,6.10
2018-03-07T03:02:01.923Z,5.90
2018-03-07T03:04:28.949Z,5.90
2018-03-07T03:06:55.232Z,5.60
2018-03-07T03:09:21.653Z,5.70
2018-03-07T03:11:47.948Z,5.40
2018-03-07T03:14:14.243Z,5.60
2018-03-07T03:16:40.500Z,5.90
2018-03-07T03:19:06.872Z,5.50
2018-03-07T03:21:33.137Z,5.30
2018-03-07T03:23:59.437Z,5.30
2018-03-07T03:26:25.736Z,5.50
2018-03-07T03:28:52.000Z,5.40
2018-03-07T03:31:19.047Z,5.40
2018-03-07T03:33:45.330Z,5.40
2018-03-07T03:36:11.630Z,5.10
2018-03-07T03:38:38.037Z,5.20
2018-03-07T03:41:04.353Z,5.10
2018-03-07T03:43:30.660Z,4.90
2018-03-07T03:45:56.947Z,4.80
2018-03-07T03:48:23.223Z,4.80
2018-03-07T03:50:49.500Z,4.80
2018-03-07T03:53:15.804Z,4.90
2018-03-07T03:55:42.173Z,4.90
2018-03-07T03:58:08.645Z,5.00
2018-03-07T04:00:34.951Z,5.00
2018-03-07T04:03:01.207Z,4.80
2018-03-07T04:05:27.481Z,5.20
2018-03-07T04:07:53.772Z,4.80
2018-03-07T04:10:20.792Z,4.80
2018-03-07T04:12:47.106Z,4.50
2018-03-07T04:15:13.393Z,4.70
2018-03-07T04:17:39.665Z,4.60
2018-03-07T04:20:06.011Z,5.00
2018-03-07T04:22:32.268Z,4.60
2018-03-07T04:24:58.554Z,4.60
2018-03-07T04:27:24.816Z,4.80
2018-03-07T04:29:56.616Z,4.60
2018-03-07T04:32:25.364Z,4.20
2018-03-07T04:34:53.575Z,4.50
2018-03-07T04:37:22.303Z,4.60
2018-03-07T04:39:51.156Z,4.70
2018-03-07T04:42:17.471Z,4.60
2018-03-07T04:44:43.763Z,4.50
2018-03-07T04:47:10.032Z,4.50
2018-03-07T04:49:36.347Z,4.60
2018-03-07T04:52:02.634Z,4.70
2018-03-07T04:54:29.040Z,4.70
2018-03-07T04:56:55.359Z,4.40
2018-03-07T04:59:21.617Z,4.40
2018-03-07T05:01:47.890Z,4.20
2018-03-07T05:04:14.203Z,4.40
2018-03-07T05:06:40.466Z,4.50
2018-03-07T05:09:06.744Z,4.20
2018-03-07T05:11:33.030Z,4.30
2018-03-07T05:14:00.024Z,4.10
2018-03-07T05:16:26.354Z,4.40
2018-03-07T05:18:52.719Z,4.20
2018-03-07T05:21:19.080Z,4.20
2018-03-07T05:23:45.366Z,4.20
2018-03-07T05:26:11.629Z,4.50
2018-03-07T05:28:37.922Z,4.30
2018-03-07T05:31:04.229Z,4.30
2018-03-07T05:33:30.493Z,4.10
2018-03-07T05:35:57.546Z,4.10
2018-03-07T05:38:23.801Z,4.20
2018-03-07T05:40:50.096Z,4.30
2018-03-07T05:43:16.363Z,4.40
2018-03-07T05:45:42.700Z,4.40
2018-03-07T05:48:09.742Z,4.00
2018-03-07T05:50:36.007Z,4.10
2018-03-07T05:53:02.546Z,3.90
2018-03-07T05:55:29.553Z,4.30
2018-03-07T05:57:55.839Z,4.20
2018-03-07T06:00:22.153Z,4.10
2018-03-07T06:02:48.435Z,3.90
2018-03-07T06:05:15.527Z,4.30
2018-03-07T06:07:41.835Z,4.40
2018-03-07T06:10:08.105Z,4.60
2018-03-07T06:12:35.135Z,4.30
2018-03-07T06:15:02.321Z,4.70
2018-03-07T06:17:28.647Z,4.60
2018-03-07T06:19:54.940Z,5.00
2018-03-07T06:22:21.625Z,4.60
2018-03-07T06:24:47.963Z,4.30
2018-03-07T06:27:14.251Z,4.50
2018-03-07T06:29:41.283Z,4.80
2018-03-07T06:32:08.302Z,4.50
2018-03-07T06:34:34.586Z,4.60
2018-03-07T06:37:00.880Z,4.50
2018-03-07T06:39:27.895Z,4.40
2018-03-07T06:41:54.930Z,4.60
2018-03-07T06:44:21.196Z,4.50
2018-03-07T06:46:47.477Z,4.40
2018-03-07T06:49:13.815Z,4.80
2018-03-07T06:51:41.121Z,4.80
2018-03-07T06:54:07.433Z,4.70
2018-03-07T06:56:33.721Z,4.80
2018-03-07T06:59:00.146Z,5.10
2018-03-07T07:01:26.446Z,4.80
2018-03-07T07:03:52.722Z,4.90
2018-03-07T07:06:20.020Z,4.70
2018-03-07T07:08:47.054Z,5.10
2018-03-07T07:11:14.074Z,4.70
2018-03-07T07:13:40.398Z,4.70
2018-03-07T07:16:08.182Z,4.70
2018-03-07T07:18:34.673Z,4.90
2018-03-07T07:21:01.803Z,5.50
2018-03-07T07:23:29.322Z,5.20
2018-03-07T07:25:55.727Z,5.20
2018-03-07T07:28:21.978Z,5.20
2018-03-07T07:30:49.138Z,5.40
2018-03-07T07:33:15.410Z,5.40
2018-03-07T07:35:41.682Z,5.40
2018-03-07T07:38:07.990Z,5.40
2018-03-07T07:40:35.587Z,5.30
2018-03-07T07:43:02.707Z,5.80
2018-03-07T07:45:29.084Z,5.90
2018-03-07T07:47:55.346Z,5.30
2018-03-07T07:50:21.662Z,5.40
2018-03-07T07:52:47.976Z,5.30
2018-03-07T07:55:14.259Z,5.50
2018-03-07T07:57:40.581Z,5.50
2018-03-07T08:00:06.830Z,5.30
2018-03-07T08:02:33.140Z,5.50
2018-03-07T08:04:59.398Z,5.50
2018-03-07T08:07:25.753Z,5.40
2018-03-07T08:09:52.853Z,5.60
2018-03-07T08:12:19.135Z,5.80
2018-03-07T08:14:45.440Z,5.70
2018-03-07T08:17:11.716Z,5.90
2018-03-07T08:19:38.073Z,5.70
2018-03-07T08:22:04.344Z,5.70
2018-03-07T08:24:30.594Z,5.80
2018-03-07T08:26:56.878Z,5.70
2018-03-07T08:29:23.890Z,5.90
2018-03-07T08:31:50.197Z,5.80
2018-03-07T08:34:17.214Z,6.20
2018-03-07T08:36:44.263Z,6.40
2018-03-07T08:39:11.307Z,6.50
2018-03-07T08:41:37.566Z,6.40
2018-03-07T08:44:03.888Z,6.40
2018-03-07T08:46:30.139Z,6.60
2018-03-07T08:48:57.163Z,6.90
2018-03-07T08:51:24.248Z,6.60
2018-03-07T08:53:50.544Z,6.90
2018-03-07T08:56:16.829Z,6.70
2018-03-07T08:58:43.853Z,6.60
2018-03-07T09:01:10.865Z,6.70
2018-03-07T09:03:37.165Z,6.90
2018-03-07T09:06:03.494Z,6.70
2018-03-07T09:08:29.794Z,6.90
2018-03-07T09:10:56.051Z,7.00
2018-03-07T09:13:23.071Z,7.20
2018-03-07T09:15:49.450Z,7.60
2018-03-07T09:18:15.730Z,7.50
2018-03-07T09:20:42.087Z,7.40
2018-03-07T09:23:08.372Z,7.50
2018-03-07T09:25:34.674Z,7.60
2018-03-07T09:28:00.946Z,7.70
2018-03-07T09:30:27.231Z,8.20
2018-03-07T09:32:53.524Z,7.90
2018-03-07T09:35:19.831Z,8.10
2018-03-07T09:37:46.138Z,8.80
2018-03-07T09:40:13.174Z,8.10
2018-03-07T09:42:40.240Z,8.00
2018-03-07T09:45:06.598Z,7.90
2018-03-07T09:47:32.833Z,7.90
2018-03-07T09:49:59.900Z,8.50
2018-03-07T09:52:26.450Z,8.40
2018-03-07T09:54:52.734Z,8.50
2018-03-07T09:57:19.037Z,8.90
2018-03-07T09:59:45.305Z,8.00
2018-03-07T10:02:11.594Z,8.50
2018-03-07T10:04:37.878Z,8.50
2018-03-07T10:07:04.275Z,8.60
2018-03-07T10:09:30.529Z,8.80
2018-03-07T10:11:56.854Z,8.70
2018-03-07T10:14:23.894Z,9.40
2018-03-07T10:16:50.176Z,9.30
2018-03-07T10:19:16.472Z,9.70
2018-03-07T10:21:43.510Z,9.70
2018-03-07T10:24:10.549Z,9.20
2018-03-07T10:26:37.633Z,9.30
2018-03-07T10:29:03.879Z,9.30
2018-03-07T10:31:30.196Z,9.00
2018-03-07T10:33:56.502Z,9.10
2018-03-07T10:36:22.796Z,8.90
2018-03-07T10:38:49.082Z,9.40
2018-03-07T10:41:15.367Z,10.10
2018-03-07T10:43:42.426Z,10.90
2018-03-07T10:46:08.697Z,11.10
2018-03-07T10:48:35.057Z,11.00
2018-03-07T10:51:01.367Z,11.00
2018-03-07T10:53:27.646Z,11.20
2018-03-07T10:55:53.955Z,11.00
2018-03-07T10:58:20.309Z,10.80
2018-03-07T11:00:46.732Z,10.60
2018-03-07T11:03:13.050Z,10.40
2018-03-07T11:05:39.331Z,10.40
2018-03-07T11:08:05.623Z,10.70
2018-03-07T11:10:31.898Z,10.70
2018-03-07T11:12:58.191Z,10.30
2018-03-07T11:15:25.234Z,10.20
2018-03-07T11:17:52.242Z,10.30
2018-03-07T11:20:18.543Z,9.90
2018-03-07T11:22:44.965Z,9.90
2018-03-07T11:25:11.231Z,9.50
2018-03-07T11:27:37.559Z,9.90
2018-03-07T11:30:03.873Z,9.30
2018-03-07T11:32:30.204Z,9.80
2018-03-07T11:34:56.470Z,9.60
2018-03-07T11:37:23.471Z,9.60
2018-03-07T11:39:49.790Z,9.60
2018-03-07T11:42:16.074Z,9.60
2018-03-07T11:44:42.353Z,9.80
2018-03-07T11:47:09.365Z,9.90
2018-03-07T11:49:35.630Z,9.80
2018-03-07T11:52:01.929Z,10.10
2018-03-07T11:54:28.218Z,10.20
2018-03-07T11:56:55.279Z,10.20
2018-03-07T11:59:21.556Z,10.30
2018-03-07T12:01:47.868Z,9.80
2018-03-07T12:04:14.951Z,10.00
2018-03-07T12:06:41.238Z,9.90
2018-03-07T12:09:07.538Z,10.00
2018-03-07T12:11:33.853Z,10.40
2018-03-07T12:14:00.140Z,10.90
2018-03-07T12:16:26.484Z,11.20
2018-03-07T12:18:52.768Z,11.30
2018-03-07T12:21:19.068Z,11.50
2018-03-07T12:23:45.361Z,11.80
2018-03-07T12:26:11.649Z,12.00
2018-03-07T12:28:37.978Z,12.10
2018-03-07T12:31:05.008Z,12.10
2018-03-07T12:33:32.067Z,11.90
2018-03-07T12:35:58.350Z,12.10
2018-03-07T12:38:25.378Z,11.70
2018-03-07T12:40:52.420Z,11.50
2018-03-07T12:43:19.434Z,11.10
2018-03-07T12:45:45.750Z,11.30
2018-03-07T12:48:12.021Z,10.90
2018-03-07T12:50:38.319Z,10.70
2018-03-07T12:53:04.613Z,10.50
2018-03-07T12:55:31.630Z,10.90
2018-03-07T12:57:57.967Z,10.70
2018-03-07T13:00:24.974Z,11.20
2018-03-07T13:02:51.271Z,11.30
2018-03-07T13:05:17.610Z,11.20
2018-03-07T13:07:44.010Z,10.80
2018-03-07T13:10:10.306Z,10.60
2018-03-07T13:12:36.592Z,10.70
2018-03-07T13:15:02.887Z,10.30
2018-03-07T13:17:29.919Z,9.80
2018-03-07T13:19:56.938Z,9.90
2018-03-07T13:22:23.221Z,10.10
2018-03-07T13:24:49.586Z,9.80
2018-03-07T13:27:16.892Z,10.00
2018-03-07T13:29:43.969Z,10.10
2018-03-07T13:32:10.970Z,9.90
2018-03-07T13:34:37.295Z,10.40
2018-03-07T13:37:03.598Z,10.40
2018-03-07T13:39:30.655Z,10.30
2018-03-07T13:41:57.726Z,10.00
2018-03-07T13:44:24.298Z,10.10
2018-03-07T13:46:50.571Z,10.00
2018-03-07T13:49:16.879Z,10.10
2018-03-07T13:51:43.213Z,10.10
2018-03-07T13:54:09.517Z,10.10
2018-03-07T13:56:35.793Z,10.30
2018-03-07T13:59:02.385Z,10.40
2018-03-07T14:01:28.739Z,10.70
2018-03-07T14:03:55.749Z,14.90
2018-03-07T14:06:22.006Z,14.90
2018-03-07T14:08:48.306Z,15.00
2018-03-07T14:11:15.309Z,12.90
2018-03-07T14:13:41.618Z,12.90
2018-03-07T14:16:07.898Z,13.30
2018-03-07T14:18:34.158Z,13.30
2018-03-07T14:21:00.454Z,13.10
2018-03-07T14:23:26.792Z,12.70
2018-03-07T14:25:53.120Z,12.30
2018-03-07T14:28:20.165Z,11.60
2018-03-07T14:30:46.459Z,11.50
2018-03-07T14:33:13.485Z,10.90
2018-03-07T14:35:39.751Z,11.00
2018-03-07T14:38:06.338Z,11.10
2018-03-07T14:40:33.377Z,11.40
2018-03-07T14:43:00.843Z,11.60
2018-03-07T14:45:27.171Z,11.80
2018-03-07T14:47:53.836Z,11.70
2018-03-07T14:50:20.177Z,12.20
2018-03-07T14:52:46.492Z,11.80
2018-03-07T14:55:13.527Z,11.20
2018-03-07T14:57:39.862Z,11.30
2018-03-07T15:00:06.311Z,10.90
2018-03-07T15:02:32.617Z,10.90
2018-03-07T15:04:58.914Z,11.10
2018-03-07T15:07:25.197Z,11.20
2018-03-07T15:09:52.247Z,11.20
2018-03-07T15:12:18.535Z,11.50
2018-03-07T15:14:44.840Z,11.30
2018-03-07T15:17:11.638Z,11.10
2018-03-07T15:19:38.414Z,11.10
2018-03-07T15:22:04.767Z,10.80
2018-03-07T15:24:31.067Z,10.90
2018-03-07T15:26:57.388Z,10.90
2018-03-07T15:29:23.674Z,11.20
2018-03-07T15:31:50.704Z,10.80
2018-03-07T15:34:17.911Z,10.90
2018-03-07T15:36:44.255Z,10.90
2018-03-07T15:39:10.555Z,10.90
2018-03-07T15:41:36.822Z,10.80
2018-03-07T15:44:03.093Z,10.60
2018-03-07T15:46:29.380Z,10.60
2018-03-07T15:48:56.439Z,10.60
2018-03-07T15:51:22.931Z,10.80
2018-03-07T15:53:50.037Z,10.60
2018-03-07T15:56:16.435Z,9.90
2018-03-07T15:58:44.502Z,10.30
2018-03-07T16:01:10.876Z,10.10
2018-03-07T16:03:37.942Z,9.90
2018-03-07T16:06:04.968Z,9.90
2018-03-07T16:08:31.984Z,9.70
2018-03-07T16:10:58.280Z,9.80
2018-03-07T16:13:24.546Z,10.00
2018-03-07T16:15:50.854Z,9.80
2018-03-07T16:18:17.158Z,9.70
2018-03-07T16:20:44.162Z,9.10
2018-03-07T16:23:10.467Z,9.10
2018-03-07T16:25:36.767Z,8.80
2018-03-07T16:28:03.119Z,8.60
2018-03-07T16:30:29.394Z,8.30
2018-03-07T16:32:55.659Z,8.30
2018-03-07T16:35:21.953Z,8.40
2018-03-07T16:37:48.266Z,8.50
2018-03-07T16:40:14.559Z,8.50
2018-03-07T16:42:41.432Z,8.30
2018-03-07T16:45:07.754Z,8.60
2018-03-07T16:47:34.033Z,8.20
2018-03-07T16:50:00.316Z,8.20
2018-03-07T16:52:26.802Z,8.30
2018-03-07T16:54:53.063Z,8.60
2018-03-07T16:57:19.365Z,7.90
2018-03-07T16:59:45.656Z,8.20
2018-03-07T17:02:12.059Z,8.10
2018-03-07T17:04:38.347Z,8.10
2018-03-07T17:07:04.628Z,8.20
2018-03-07T17:09:30.897Z,8.10
2018-03-07T17:11:57.252Z,7.90
2018-03-07T17:14:24.246Z,8.00
2018-03-07T17:16:50.546Z,8.00
2018-03-07T17:19:16.838Z,8.10
2018-03-07T17:21:43.089Z,7.90
2018-03-07T17:24:09.394Z,7.90
2018-03-07T17:26:35.699Z,7.90
2018-03-07T17:29:02.030Z,8.10
2018-03-07T17:31:28.310Z,8.00
2018-03-07T17:33:54.598Z,8.00
2018-03-07T17:36:21.634Z,8.00
2018-03-07T17:38:48.678Z,7.90
2018-03-07T17:41:14.999Z,8.00
2018-03-07T17:43:42.042Z,7.90
2018-03-07T17:46:08.337Z,7.90
2018-03-07T17:48:34.606Z,7.90
2018-03-07T17:51:00.904Z,8.00
2018-03-07T17:53:27.196Z,8.00
2018-03-07T17:55:53.619Z,8.00
2018-03-07T17:58:19.941Z,8.00
2018-03-07T18:00:46.262Z,7.70
2018-03-07T18:03:12.554Z,8.00
2018-03-07T18:05:38.850Z,8.00
2018-03-07T18:08:05.890Z,7.80
2018-03-07T18:10:32.958Z,8.00
2018-03-07T18:12:59.405Z,7.80
2018-03-07T18:15:25.755Z,8.00
2018-03-07T18:17:52.853Z,7.80
2018-03-07T18:20:19.200Z,8.20
2018-03-07T18:22:46.267Z,8.10
2018-03-07T18:25:12.640Z,7.90
2018-03-07T18:27:39.744Z,7.90
2018-03-07T18:30:06.139Z,8.00
2018-03-07T18:32:32.586Z,8.50
2018-03-07T18:34:59.400Z,8.20
2018-03-07T18:37:26.630Z,7.80
2018-03-07T18:39:52.926Z,7.90
2018-03-07T18:42:19.203Z,8.00
2018-03-07T18:44:45.473Z,8.10
2018-03-07T18:47:11.770Z,7.90
2018-03-07T18:49:38.059Z,7.80
2018-03-07T18:52:05.081Z,7.90
2018-03-07T18:54:31.333Z,8.00
2018-03-07T18:56:57.602Z,7.90
2018-03-07T18:59:23.882Z,7.40
2018-03-07T19:01:50.418Z,8.00
2018-03-07T19:04:16.701Z,7.90
2018-03-07T19:06:42.973Z,8.00
2018-03-07T19:09:09.262Z,7.90
2018-03-07T19:11:35.611Z,8.00
2018-03-07T19:14:01.944Z,7.80
2018-03-07T19:16:28.263Z,7.70
2018-03-07T19:18:54.581Z,7.70
2018-03-07T19:21:20.855Z,7.70
2018-03-07T19:23:47.292Z,7.50
2018-03-07T19:26:14.351Z,7.60
2018-03-07T19:28:40.692Z,8.00
2018-03-07T19:31:06.948Z,7.70
2018-03-07T19:33:33.213Z,7.70
2018-03-07T19:35:59.499Z,7.50
2018-03-07T19:38:26.512Z,7.60
2018-03-07T19:40:52.806Z,7.60
2018-03-07T19:43:19.081Z,7.70
2018-03-07T19:45:45.358Z,7.60
2018-03-07T19:48:11.655Z,7.60
2018-03-07T19:50:37.960Z,7.60
2018-03-07T19:53:04.293Z,7.70
2018-03-07T19:55:30.594Z,7.60
2018-03-07T19:57:56.855Z,7.50
2018-03-07T20:00:23.941Z,7.50
2018-03-07T20:02:50.230Z,7.70
2018-03-07T20:05:16.520Z,7.30
2018-03-07T20:07:43.535Z,7.30
2018-03-07T20:10:10.530Z,7.50
2018-03-07T20:12:36.821Z,7.30
2018-03-07T20:15:03.111Z,7.50
2018-03-07T20:17:29.618Z,7.50
2018-03-07T20:19:56.248Z,7.00
2018-03-07T20:22:22.550Z,7.50
2018-03-07T20:24:48.838Z,7.40
2018-03-07T20:27:15.146Z,7.50
2018-03-07T20:29:41.515Z,7.50
2018-03-07T20:32:08.550Z,7.50
2018-03-07T20:34:35.566Z,7.70
2018-03-07T20:37:01.837Z,7.50
2018-03-07T20:39:28.134Z,7.60
2018-03-07T20:41:54.465Z,7.50
2018-03-07T20:44:20.729Z,7.20
2018-03-07T20:46:46.993Z,7.30
2018-03-07T20:49:13.937Z,7.30
2018-03-07T20:51:40.494Z,7.30
2018-03-07T20:54:06.820Z,7.40
2018-03-07T20:56:33.948Z,7.20
2018-03-07T20:59:00.337Z,7.40
2018-03-07T21:01:26.654Z,7.40
2018-03-07T21:03:52.934Z,7.50
2018-03-07T21:06:19.239Z,7.30
2018-03-07T21:08:48.883Z,7.60
2018-03-07T21:11:15.598Z,7.30
2018-03-07T21:13:43.012Z,7.50
2018-03-07T21:16:09.776Z,7.20
2018-03-07T21:18:37.714Z,7.20
2018-03-07T21:21:06.673Z,7.30
2018-03-07T21:23:33.556Z,7.50
2018-03-07T21:26:00.110Z,7.10
2018-03-07T21:28:26.408Z,7.40
2018-03-07T21:30:53.903Z,7.20
2018-03-07T21:33:20.455Z,7.20
2018-03-07T21:35:47.118Z,7.40
2018-03-07T21:38:13.399Z,7.20
2018-03-07T21:40:39.697Z,7.30
2018-03-07T21:43:05.992Z,7.40
2018-03-07T21:45:32.257Z,7.20
2018-03-07T21:47:59.477Z,7.20
2018-03-07T21:50:26.607Z,7.10
2018-03-07T21:52:52.865Z,7.20
2018-03-07T21:55:19.134Z,7.20
2018-03-07T21:57:45.417Z,7.10
2018-03-07T22:00:11.779Z,7.10
2018-03-07T22:02:38.041Z,7.30
2018-03-07T22:05:04.667Z,6.90
2018-03-07T22:07:31.442Z,7.80
2018-03-07T22:09:57.961Z,7.10
2018-03-07T22:12:24.979Z,7.00
2018-03-07T22:14:51.489Z,7.10
2018-03-07T22:17:17.959Z,6.90
2018-03-07T22:19:44.409Z,7.00
2018-03-07T22:22:10.702Z,6.90
2018-03-07T22:24:37.201Z,7.10
2018-03-07T22:27:04.243Z,6.90
2018-03-07T22:29:30.646Z,6.90
2018-03-07T22:31:57.653Z,6.90
2018-03-07T22:34:23.970Z,6.80
2018-03-07T22:36:50.314Z,6.90
2018-03-07T22:39:17.329Z,7.00
2018-03-07T22:41:43.614Z,7.20
2018-03-07T22:44:09.877Z,7.00
2018-03-07T22:46:36.903Z,6.90
2018-03-07T22:49:03.910Z,6.90
2018-03-07T22:51:30.186Z,6.80
2018-03-07T22:53:56.491Z,6.80
2018-03-07T22:56:22.758Z,6.80
2018-03-07T22:58:49.038Z,6.90
2018-03-07T23:01:15.308Z,6.80
2018-03-07T23:03:41.603Z,6.70
2018-03-07T23:06:10.311Z,6.80
2018-03-07T23:08:39.724Z,6.60
2018-03-07T23:11:08.769Z,6.80
2018-03-07T23:13:38.193Z,6.80
2018-03-07T23:16:06.706Z,6.60
2018-03-07T23:18:35.491Z,6.80
2018-03-07T23:21:03.236Z,6.90
2018-03-07T23:23:32.032Z,6.90
2018-03-07T23:26:00.743Z,6.60
2018-03-07T23:28:29.434Z,6.60
2018-03-07T23:30:57.895Z,6.70
2018-03-07T23:33:26.603Z,6.90
2018-03-07T23:35:56.240Z,6.70
2018-03-07T23:38:25.002Z,6.60
2018-03-07T23:40:53.629Z,6.60
2018-03-07T23:43:21.374Z,6.50
2018-03-07T23:45:50.313Z,6.60
2018-03-07T23:48:19.028Z,6.40
2018-03-07T23:50:47.820Z,6.50
2018-03-07T23:53:16.604Z,6.60
2018-03-07T23:55:45.290Z,6.40
2018-03-07T23:58:13.656Z,6.40
